Time;durP1;ratioP1;P1;durP2;ratioP2;P2;SDS_P1;SDS_P2;PMS_P1;PMS_P2;Temp;Humidity;BMP_temperature;BMP_pressure;BME280_temperature;BME280_humidity;BME280_pressure;Samples;Min_cycle;Max_cycle;Signal;HPM_P1;HPM_P2
2023/05/19 00:01:18;;;;;;;14.27;10.00;;;;;;;9.47;100.00;96023.25;5048074;28;20462;-72
2023/05/19 00:03:57;;;;;;;11.50;10.40;;;;;;;9.44;100.00;96028.75;5049559;28;20018;-72
2023/05/19 00:06:31;;;;;;;10.32;9.30;;;;;;;9.43;100.00;96027.09;5050724;28;20446;-73
2023/05/19 00:09:10;;;;;;;10.88;9.85;;;;;;;9.40;100.00;96022.09;5049149;28;20025;-72
2023/05/19 00:11:38;;;;;;;11.13;10.20;;;;;;;9.37;100.00;96027.63;5049430;28;20028;-73
2023/05/19 00:14:08;;;;;;;11.45;10.40;;;;;;;9.35;100.00;96026.91;5051052;28;20120;-72
2023/05/19 00:16:36;;;;;;;12.00;10.98;;;;;;;9.33;100.00;96032.28;5042156;28;20047;-73
2023/05/19 00:19:04;;;;;;;12.05;10.63;;;;;;;9.34;100.00;96026.06;5048390;28;20028;-72
2023/05/19 00:21:30;;;;;;;11.85;10.63;;;;;;;9.35;100.00;96032.16;5046262;28;20153;-72
2023/05/19 00:23:56;;;;;;;11.13;9.98;;;;;;;9.34;100.00;96035.75;5049403;28;20105;-73
2023/05/19 00:26:22;;;;;;;13.80;11.43;;;;;;;9.34;100.00;96031.31;5049894;28;20021;-72
2023/05/19 00:28:48;;;;;;;13.77;11.35;;;;;;;9.36;100.00;96032.03;5045762;28;20021;-72
2023/05/19 00:31:14;;;;;;;13.00;10.23;;;;;;;9.36;100.00;96036.47;5049939;28;20031;-72
2023/05/19 00:33:39;;;;;;;16.08;10.90;;;;;;;9.35;100.00;96032.16;5046396;28;20037;-73
2023/05/19 00:36:05;;;;;;;15.02;10.98;;;;;;;9.36;100.00;96031.19;5046695;28;20024;-73
2023/05/19 00:38:32;;;;;;;12.40;10.10;;;;;;;9.34;100.00;96028.69;5047268;28;20035;-72
2023/05/19 00:40:58;;;;;;;13.95;10.73;;;;;;;9.34;100.00;96020.81;5049270;28;20560;-73
2023/05/19 00:43:23;;;;;;;13.68;10.23;;;;;;;9.31;100.00;96023.69;5050553;28;20025;-73
2023/05/19 00:45:50;;;;;;;12.30;10.38;;;;;;;9.33;100.00;96032.28;5066450;28;20390;-73
2023/05/19 00:48:15;;;;;;;9.77;8.88;;;;;;;9.32;100.00;96020.94;5045966;28;20029;-72
2023/05/19 00:50:41;;;;;;;10.07;8.88;;;;;;;9.34;100.00;96026.06;5050313;28;20056;-74
2023/05/19 00:53:07;;;;;;;9.65;8.65;;;;;;;9.40;100.00;96022.09;5046742;28;20560;-71
2023/05/19 00:55:35;;;;;;;9.15;8.35;;;;;;;9.48;100.00;96018.84;5048438;28;20021;-74
2023/05/19 00:58:00;;;;;;;11.93;10.05;;;;;;;9.52;100.00;96012.38;5049916;28;20025;-74
2023/05/19 01:00:26;;;;;;;12.23;10.90;;;;;;;9.51;100.00;96010.69;5053217;28;20028;-74
2023/05/19 01:02:52;;;;;;;12.02;10.07;;;;;;;9.52;100.00;96010.59;5049184;28;20031;-73
2023/05/19 01:05:18;;;;;;;11.18;10.13;;;;;;;9.53;100.00;96000.88;5052861;28;20025;-73
2023/05/19 01:07:45;;;;;;;10.75;9.70;;;;;;;9.53;100.00;96000.88;5048394;28;20013;-74
2023/05/19 01:10:11;;;;;;;10.68;9.57;;;;;;;9.52;100.00;96001.84;5051992;28;20033;-74
2023/05/19 01:12:39;;;;;;;8.90;8.07;;;;;;;9.54;100.00;96002.56;5048437;28;20067;-73
2023/05/19 01:15:05;;;;;;;13.13;8.65;;;;;;;9.54;100.00;96003.41;5049690;28;20043;-73
2023/05/19 01:17:49;;;;;;;10.18;9.13;;;;;;;9.50;100.00;95993.25;5050320;28;20021;-73
2023/05/19 01:20:27;;;;;;;10.05;8.90;;;;;;;9.47;100.00;95994.34;5046328;28;20017;-74
2023/05/19 01:23:22;;;;;;;10.77;9.02;;;;;;;9.43;100.00;95992.94;5046646;28;20029;-74
2023/05/19 01:26:25;;;;;;;11.05;9.95;;;;;;;9.45;100.00;95993.63;5050638;28;20112;-74
2023/05/19 01:29:12;;;;;;;12.63;10.55;;;;;;;9.46;100.00;95987.41;5051701;28;20508;-73
2023/05/19 01:31:41;;;;;;;11.50;9.95;;;;;;;9.48;100.00;95987.31;5045045;28;20028;-73
2023/05/19 01:34:09;;;;;;;12.60;10.07;;;;;;;9.47;100.00;95989.09;5048179;28;20696;-74
2023/05/19 01:36:36;;;;;;;15.07;10.70;;;;;;;9.41;100.00;95982.56;5049086;28;20264;-73
2023/05/19 01:39:02;;;;;;;14.35;10.02;;;;;;;9.44;100.00;95984.94;5051112;28;20462;-74
2023/05/19 01:41:29;;;;;;;11.70;8.68;;;;;;;9.45;100.00;95977.88;5045983;28;20147;-74
2023/05/19 01:43:56;;;;;;;9.00;8.20;;;;;;;9.40;100.00;95975.66;5051348;28;20025;-74
2023/05/19 01:46:23;;;;;;;9.95;8.32;;;;;;;9.46;100.00;95969.88;5054660;28;20474;-74
2023/05/19 01:48:48;;;;;;;8.43;7.40;;;;;;;9.44;100.00;95982.31;5052559;28;20116;-74
2023/05/19 01:51:14;;;;;;;8.55;7.75;;;;;;;9.44;100.00;95982.31;5053676;28;20033;-73
2023/05/19 01:53:39;;;;;;;9.23;7.30;;;;;;;9.42;100.00;95976.34;5070753;28;20076;-74
2023/05/19 01:56:06;;;;;;;8.48;7.70;;;;;;;9.42;100.00;95972.88;5051582;28;20053;-74
2023/05/19 01:58:45;;;;;;;9.93;8.93;;;;;;;9.42;100.00;95984.22;5072569;28;20108;-73
2023/05/19 02:01:32;;;;;;;9.18;8.32;;;;;;;9.43;100.00;95979.78;5046999;28;20037;-74
2023/05/19 02:04:10;;;;;;;8.88;8.07;;;;;;;9.42;100.00;95978.13;5049932;28;20027;-74
2023/05/19 02:06:45;;;;;;;9.45;8.40;;;;;;;9.42;100.00;95976.34;5069210;28;20017;-73
2023/05/19 02:09:38;;;;;;;10.07;9.07;;;;;;;9.47;100.00;95975.94;5054290;28;20516;-74
2023/05/19 02:12:27;;;;;;;9.82;9.13;;;;;;;9.45;100.00;95975.25;5044445;28;20259;-74
2023/05/19 02:15:08;;;;;;;10.10;8.70;;;;;;;9.43;100.00;95974.53;5069968;28;20013;-73
2023/05/19 02:17:37;;;;;;;11.02;8.88;;;;;;;9.40;100.00;95980.91;5057648;28;20055;-74
2023/05/19 02:20:04;;;;;;;10.02;8.90;;;;;;;9.41;100.00;95981.72;5057246;28;20024;-73
2023/05/19 02:22:30;;;;;;;9.40;8.60;;;;;;;9.39;100.00;95973.94;5055558;28;20308;-75
2023/05/19 02:24:56;;;;;;;10.13;9.23;;;;;;;9.39;100.00;95986.28;5056298;28;20025;-74
2023/05/19 02:27:22;;;;;;;8.73;8.02;;;;;;;9.37;100.00;95975.06;5056945;28;20028;-74
2023/05/19 02:29:47;;;;;;;9.85;9.05;;;;;;;9.38;100.00;95977.53;5057237;28;20021;-74
2023/05/19 02:32:13;;;;;;;12.82;9.15;;;;;;;9.41;100.00;95979.94;5056567;28;20021;-73
2023/05/19 02:34:41;;;;;;;11.50;9.27;;;;;;;9.41;100.00;95972.06;5056536;28;20025;-74
2023/05/19 02:37:06;;;;;;;9.82;8.90;;;;;;;9.39;100.00;95978.38;5052009;28;20077;-73
2023/05/19 02:39:34;;;;;;;10.65;9.73;;;;;;;9.41;100.00;95979.09;5055293;28;20102;-74
2023/05/19 02:42:00;;;;;;;9.32;8.50;;;;;;;9.42;100.00;95984.22;5056828;28;20091;-73
2023/05/19 02:44:25;;;;;;;9.75;8.77;;;;;;;9.44;100.00;95977.06;5056762;28;20016;-75
2023/05/19 02:46:51;;;;;;;9.85;8.98;;;;;;;9.44;100.00;95978.84;5049774;28;20027;-73
2023/05/19 02:49:16;;;;;;;10.35;9.15;;;;;;;9.44;100.00;95981.47;5056251;28;20021;-74
2023/05/19 02:51:41;;;;;;;9.48;8.68;;;;;;;9.48;100.00;95974.16;5055485;28;20083;-74
2023/05/19 02:54:07;;;;;;;10.43;8.57;;;;;;;9.48;100.00;95979.41;5071361;28;20110;-73
2023/05/19 02:56:32;;;;;;;9.43;8.73;;;;;;;9.44;100.00;95978.84;5054530;28;20013;-73
2023/05/19 02:58:58;;;;;;;9.23;8.40;;;;;;;9.45;100.00;95975.25;5055291;28;20021;-74
2023/05/19 03:01:23;;;;;;;10.00;9.00;;;;;;;9.48;100.00;95976.78;5055991;28;20020;-74
2023/05/19 03:03:48;;;;;;;10.40;9.50;;;;;;;9.43;100.00;95970.13;5055996;28;20017;-74
2023/05/19 03:06:14;;;;;;;9.07;8.20;;;;;;;9.43;100.00;95969.28;5055905;28;20405;-73
2023/05/19 03:08:39;;;;;;;11.55;9.15;;;;;;;9.40;100.00;95967.75;5055836;28;20027;-73
2023/05/19 03:11:05;;;;;;;8.50;7.88;;;;;;;9.40;100.00;95965.13;5055125;28;20025;-74
2023/05/19 03:13:30;;;;;;;8.93;8.13;;;;;;;9.43;100.00;95966.66;5056249;28;20016;-73
2023/05/19 03:15:57;;;;;;;9.23;8.52;;;;;;;9.36;100.00;95962.88;5056269;28;20025;-73
2023/05/19 03:18:24;;;;;;;9.35;8.52;;;;;;;9.38;100.00;95960.97;5055778;28;20027;-73
2023/05/19 03:20:52;;;;;;;9.50;8.60;;;;;;;9.38;100.00;95964.41;5056319;28;20067;-73
2023/05/19 03:23:18;;;;;;;9.13;8.18;;;;;;;9.36;100.00;95958.44;5055835;28;20035;-73
2023/05/19 03:25:43;;;;;;;9.05;8.15;;;;;;;9.37;100.00;95968.00;5038117;28;20116;-73
2023/05/19 03:28:09;;;;;;;10.88;8.77;;;;;;;9.38;100.00;95961.78;5055495;28;20035;-74
2023/05/19 03:30:34;;;;;;;8.80;7.90;;;;;;;9.36;100.00;95953.19;5055848;28;20029;-73
2023/05/19 03:33:00;;;;;;;8.48;7.60;;;;;;;9.33;100.00;95950.81;5054446;28;20020;-73
2023/05/19 03:35:26;;;;;;;11.35;8.00;;;;;;;9.35;100.00;95951.53;5067736;28;20010;-73
2023/05/19 03:37:51;;;;;;;9.98;8.38;;;;;;;9.37;100.00;95948.78;5055394;28;20070;-73
2023/05/19 03:40:17;;;;;;;12.98;8.07;;;;;;;9.36;100.00;95952.38;5055669;28;20060;-73
2023/05/19 03:42:43;;;;;;;9.98;9.07;;;;;;;9.37;100.00;95954.03;5055398;28;20018;-73
2023/05/19 03:45:08;;;;;;;8.45;7.75;;;;;;;9.34;100.00;95951.66;5051664;28;20453;-73
2023/05/19 03:47:34;;;;;;;8.70;7.88;;;;;;;9.32;100.00;95957.03;5054181;28;20029;-73
2023/05/19 03:50:00;;;;;;;9.70;8.77;;;;;;;9.30;100.00;95946.69;5055584;28;20053;-73
2023/05/19 03:52:25;;;;;;;9.15;8.27;;;;;;;9.31;100.00;95950.97;5037005;28;20035;-73
2023/05/19 03:54:51;;;;;;;9.32;8.55;;;;;;;9.33;100.00;95953.44;5055854;28;20029;-73
2023/05/19 03:57:17;;;;;;;9.48;8.25;;;;;;;9.36;100.00;95958.44;5055231;28;20032;-74
2023/05/19 03:59:42;;;;;;;9.23;8.27;;;;;;;9.35;100.00;95951.53;5055441;28;20454;-73
2023/05/19 04:02:08;;;;;;;8.52;7.57;;;;;;;9.36;100.00;95955.00;5055333;28;20039;-73
2023/05/19 04:04:33;;;;;;;8.80;7.85;;;;;;;9.35;100.00;95964.66;5055205;28;20028;-73
2023/05/19 04:06:59;;;;;;;9.13;8.43;;;;;;;9.36;100.00;95957.63;5053542;28;20025;-73
2023/05/19 04:09:24;;;;;;;8.38;7.55;;;;;;;9.37;100.00;95962.75;5055407;28;20024;-73
2023/05/19 04:11:49;;;;;;;7.88;7.18;;;;;;;9.35;100.00;95953.34;5054726;28;20032;-73
2023/05/19 04:14:15;;;;;;;8.70;7.93;;;;;;;9.33;100.00;95958.72;5055512;28;20020;-73
2023/05/19 04:16:41;;;;;;;9.32;8.13;;;;;;;9.30;100.00;95958.97;5054422;28;20385;-73
2023/05/19 04:19:06;;;;;;;8.55;7.75;;;;;;;9.28;100.00;95959.09;5055135;28;20063;-73
2023/05/19 04:21:32;;;;;;;8.85;8.13;;;;;;;9.26;100.00;95958.38;5054871;28;20021;-73
2023/05/19 04:24:00;;;;;;;8.80;8.10;;;;;;;9.28;100.00;95953.84;5054645;28;20424;-73
2023/05/19 04:26:29;;;;;;;8.63;7.82;;;;;;;9.30;100.00;95957.19;5054171;28;20102;-73
2023/05/19 04:28:55;;;;;;;9.07;8.00;;;;;;;9.30;100.00;95954.56;5054811;28;20013;-73
2023/05/19 04:31:20;;;;;;;9.60;8.70;;;;;;;9.28;100.00;95956.47;5052808;28;20021;-73
2023/05/19 04:33:46;;;;;;;9.80;8.77;;;;;;;9.29;100.00;95957.31;5049455;28;20045;-73
2023/05/19 04:36:12;;;;;;;8.85;8.05;;;;;;;9.28;100.00;95955.63;5054629;28;20023;-73
2023/05/19 04:38:39;;;;;;;9.77;8.80;;;;;;;9.30;100.00;95954.56;5054535;28;20099;-73
2023/05/19 04:41:05;;;;;;;9.98;7.95;;;;;;;9.31;100.00;95956.22;5059978;28;20094;-73
2023/05/19 04:43:30;;;;;;;8.43;7.60;;;;;;;9.31;100.00;95956.22;5054969;28;20469;-73
2023/05/19 04:45:57;;;;;;;9.57;8.70;;;;;;;9.34;100.00;95949.84;5050334;28;20123;-73
2023/05/19 04:48:22;;;;;;;9.68;8.88;;;;;;;9.34;100.00;95954.31;5049919;28;20025;-73
2023/05/19 04:50:48;;;;;;;9.52;8.63;;;;;;;9.37;100.00;95952.22;5053656;28;20031;-73
2023/05/19 04:53:17;;;;;;;10.77;9.02;;;;;;;9.44;100.00;95947.28;5052988;28;20021;-73
2023/05/19 04:55:43;;;;;;;8.88;7.97;;;;;;;9.49;100.00;95952.19;5053147;28;20029;-73
2023/05/19 04:58:09;;;;;;;10.10;9.20;;;;;;;9.42;100.00;95955.31;5054183;28;20039;-73
2023/05/19 05:00:36;;;;;;;9.50;7.97;;;;;;;9.42;100.00;95955.31;5054316;28;20013;-73
2023/05/19 05:03:03;;;;;;;8.43;7.65;;;;;;;9.38;100.00;95953.88;5049270;28;20055;-73
2023/05/19 05:05:29;;;;;;;9.35;8.05;;;;;;;9.41;100.00;95955.44;5054242;28;20021;-73
2023/05/19 05:07:56;;;;;;;11.32;9.02;;;;;;;9.42;100.00;95957.09;5053983;28;20060;-73
2023/05/19 05:10:21;;;;;;;8.50;7.80;;;;;;;9.44;100.00;95958.66;5054089;28;20588;-72
2023/05/19 05:12:48;;;;;;;9.40;8.50;;;;;;;9.45;100.00;95952.44;5054434;28;20056;-73
2023/05/19 05:15:13;;;;;;;9.30;8.40;;;;;;;9.51;100.00;95960.75;5066232;28;20081;-73
2023/05/19 05:17:39;;;;;;;10.75;8.73;;;;;;;9.53;100.00;95959.69;5052324;28;20025;-72
2023/05/19 05:20:05;;;;;;;9.23;8.43;;;;;;;9.54;100.00;95961.34;5054740;28;20033;-73
2023/05/19 05:22:31;;;;;;;9.02;8.30;;;;;;;9.58;100.00;95951.38;5058221;28;20028;-73
2023/05/19 05:24:57;;;;;;;10.07;9.13;;;;;;;9.60;100.00;95957.34;5055601;28;20021;-73
2023/05/19 05:27:22;;;;;;;9.55;8.48;;;;;;;9.60;100.00;95957.34;5055821;28;20104;-73
2023/05/19 05:29:48;;;;;;;11.95;8.77;;;;;;;9.63;100.00;95959.75;5056825;28;20055;-73
2023/05/19 05:32:15;;;;;;;11.88;10.40;;;;;;;9.64;100.00;95964.03;5056747;28;20074;-73
2023/05/19 05:34:41;;;;;;;10.73;9.57;;;;;;;9.67;100.00;95955.03;5057860;28;20634;-73
2023/05/19 05:37:06;;;;;;;10.40;9.27;;;;;;;9.69;100.00;95958.38;5055365;28;20044;-73
2023/05/19 05:39:32;;;;;;;10.00;9.00;;;;;;;9.71;100.00;95954.66;5057652;28;20040;-73
2023/05/19 05:41:57;;;;;;;12.00;9.60;;;;;;;9.70;100.00;95953.00;5055980;28;20024;-73
2023/05/19 05:44:22;;;;;;;11.65;9.93;;;;;;;9.70;100.00;95955.63;5058235;28;20032;-73
2023/05/19 05:46:48;;;;;;;11.05;10.02;;;;;;;9.79;100.00;95951.38;5054516;28;20021;-73
2023/05/19 05:49:14;;;;;;;18.85;16.80;;;;;;;9.73;100.00;95955.34;5057599;28;20059;-73
2023/05/19 05:51:40;;;;;;;18.75;16.98;;;;;;;9.72;100.00;95952.84;5057130;28;20086;-73
2023/05/19 05:54:06;;;;;;;14.07;12.73;;;;;;;9.71;100.00;95952.03;5053087;28;20017;-72
2023/05/19 05:56:35;;;;;;;12.15;11.05;;;;;;;9.72;100.00;95948.44;5054972;28;20103;-73
2023/05/19 05:59:01;;;;;;;15.38;13.95;;;;;;;9.72;100.00;95939.69;5057652;28;20397;-73
2023/05/19 06:01:29;;;;;;;13.57;12.05;;;;;;;9.79;100.00;95947.91;5057533;28;20025;-73
2023/05/19 06:03:54;;;;;;;13.07;11.77;;;;;;;9.81;100.00;95948.59;5057320;28;20021;-73
2023/05/19 06:06:20;;;;;;;15.02;12.40;;;;;;;9.88;100.00;95941.88;5057323;28;20024;-73
2023/05/19 06:08:45;;;;;;;10.93;9.82;;;;;;;9.88;100.00;95947.13;5055987;28;20096;-73
2023/05/19 06:11:10;;;;;;;10.98;9.98;;;;;;;9.86;100.00;95938.56;5057052;28;20160;-73
2023/05/19 06:13:37;;;;;;;12.23;11.02;;;;;;;9.89;100.00;95943.53;5056111;28;20448;-73
2023/05/19 06:16:03;;;;;;;11.45;10.40;;;;;;;9.95;100.00;95948.28;5054717;28;20167;-73
2023/05/19 06:18:28;;;;;;;10.73;9.70;;;;;;;10.03;100.00;95955.50;5055013;28;20134;-73
2023/05/19 06:20:54;;;;;;;11.23;10.10;;;;;;;10.11;100.00;95957.47;5056117;28;20020;-72
2023/05/19 06:23:20;;;;;;;10.68;9.57;;;;;;;10.18;100.00;95953.34;5057361;28;20024;-75
2023/05/19 06:25:45;;;;;;;12.98;10.82;;;;;;;10.22;100.00;95953.91;5056497;28;20029;-73
2023/05/19 06:28:11;;;;;;;19.30;17.38;;;;;;;10.26;100.00;95948.22;5054252;28;20033;-73
2023/05/19 06:30:36;;;;;;;22.58;20.10;;;;;;;10.32;100.00;95945.09;5053818;28;20366;-72
2023/05/19 06:33:02;;;;;;;14.63;12.07;;;;;;;10.39;100.00;95949.81;5057428;28;20032;-72
2023/05/19 06:35:28;;;;;;;14.25;12.98;;;;;;;10.44;100.00;95945.84;5061447;28;20028;-73
2023/05/19 06:37:55;;;;;;;14.38;12.00;;;;;;;10.34;100.00;95952.00;5055950;28;20032;-73
2023/05/19 06:40:21;;;;;;;14.88;11.98;;;;;;;10.39;100.00;95949.81;5056764;28;20234;-73
2023/05/19 06:42:46;;;;;;;16.15;13.20;;;;;;;10.54;100.00;95943.25;5049310;28;20024;-74
2023/05/19 06:45:12;;;;;;;14.95;12.40;;;;;;;10.53;100.00;95946.84;5056833;28;20021;-73
2023/05/19 06:47:39;;;;;;;15.02;11.23;;;;;;;10.66;100.00;95945.72;5056454;28;20173;-73
2023/05/19 06:50:05;;;;;;;13.23;11.88;;;;;;;10.72;100.00;95939.91;5056627;28;20074;-73
2023/05/19 06:52:31;;;;;;;14.43;12.95;;;;;;;10.74;100.00;95941.44;5045428;28;20020;-74
2023/05/19 06:54:56;;;;;;;14.98;13.48;;;;;;;10.72;100.00;95930.22;5055535;28;20029;-74
2023/05/19 06:57:21;;;;;;;14.00;12.63;;;;;;;10.74;100.00;95941.44;5056466;28;20013;-73
2023/05/19 06:59:47;;;;;;;11.63;10.52;;;;;;;10.80;100.00;95932.19;5055149;28;20025;-73
2023/05/19 07:02:12;;;;;;;12.77;11.30;;;;;;;10.89;100.00;95936.59;5056342;28;20023;-74
2023/05/19 07:04:38;;;;;;;11.38;10.18;;;;;;;10.87;100.00;95943.81;5056502;28;20100;-73
2023/05/19 07:07:04;;;;;;;11.07;9.98;;;;;;;10.91;100.00;95938.28;5043576;28;20397;-73
2023/05/19 07:09:29;;;;;;;10.27;9.27;;;;;;;10.96;100.00;95941.34;5055980;28;20029;-73
2023/05/19 07:11:55;;;;;;;11.15;9.05;;;;;;;11.03;100.00;95945.09;5056343;28;20033;-74
2023/05/19 07:14:21;;;;;;;10.93;8.57;;;;;;;11.06;100.00;95930.81;5056201;28;20025;-73
2023/05/19 07:16:46;;;;;;;12.48;8.68;;;;;;;11.12;100.00;95938.16;5056293;28;20040;-73
2023/05/19 07:19:12;;;;;;;9.60;8.80;;;;;;;11.20;100.00;95932.19;5056187;28;20024;-74
2023/05/19 07:21:37;;;;;;;9.88;7.97;;;;;;;11.27;100.00;95930.66;5055896;28;20798;-73
2023/05/19 07:24:03;;;;;;;8.73;7.45;;;;;;;11.37;100.00;95934.09;5055137;28;20070;-73
2023/05/19 07:26:28;;;;;;;11.77;8.70;;;;;;;11.40;100.00;95935.63;5054582;28;20013;-73
2023/05/19 07:28:54;;;;;;;9.82;8.63;;;;;;;11.48;100.00;95940.19;5058414;28;20028;-74
2023/05/19 07:31:20;;;;;;;9.65;8.65;;;;;;;11.45;100.00;95943.94;5056094;28;20048;-73
2023/05/19 07:33:45;;;;;;;11.25;8.65;;;;;;;11.52;100.00;95929.22;5055915;28;20025;-74
2023/05/19 07:36:11;;;;;;;9.63;8.13;;;;;;;11.50;100.00;95930.34;5051744;28;20029;-73
2023/05/19 07:38:36;;;;;;;8.85;7.97;;;;;;;11.58;100.00;95938.34;5054235;28;20017;-73
2023/05/19 07:41:02;;;;;;;9.50;8.25;;;;;;;11.59;100.00;95932.97;5054043;28;20490;-73
2023/05/19 07:43:27;;;;;;;11.60;8.63;;;;;;;11.64;100.00;95934.31;5055099;28;20029;-75
2023/05/19 07:45:55;;;;;;;11.15;9.80;;;;;;;11.67;100.00;95932.25;5055695;28;20057;-73
2023/05/19 07:48:21;;;;;;;12.63;9.48;;;;;;;11.81;100.00;95930.94;5053997;28;20112;-73
2023/05/19 07:50:48;;;;;;;10.80;8.23;;;;;;;12.02;100.00;95933.41;5054394;28;20027;-74
2023/05/19 07:53:14;;;;;;;9.65;8.50;;;;;;;12.12;100.00;95941.28;5054949;28;20054;-73
2023/05/19 07:55:39;;;;;;;8.18;7.35;;;;;;;12.18;100.00;95942.50;5055302;28;20013;-74
2023/05/19 07:58:05;;;;;;;9.05;7.80;;;;;;;12.21;100.00;95930.84;5037690;28;20021;-73
2023/05/19 08:00:31;;;;;;;10.55;7.85;;;;;;;12.23;100.00;95944.72;5055160;28;20020;-74
2023/05/19 08:02:56;;;;;;;13.52;7.90;;;;;;;12.16;100.00;95940.03;5054653;28;20107;-73
2023/05/19 08:05:22;;;;;;;12.55;9.10;;;;;;;12.23;100.00;95928.88;5055548;28;20064;-73
2023/05/19 08:07:48;;;;;;;8.80;7.80;;;;;;;12.35;100.00;95929.50;5055082;28;20078;-73
2023/05/19 08:10:13;;;;;;;10.20;8.40;;;;;;;12.37;100.00;95917.81;5051886;28;20104;-73
2023/05/19 08:12:39;;;;;;;9.57;7.82;;;;;;;12.41;100.00;95921.84;5048706;28;20283;-73
2023/05/19 08:15:05;;;;;;;10.32;8.88;;;;;;;12.43;100.00;95916.41;5055113;28;20489;-73
2023/05/19 08:17:30;;;;;;;8.55;7.72;;;;;;;12.39;100.00;95907.13;5055253;28;20091;-73
2023/05/19 08:19:56;;;;;;;10.50;8.30;;;;;;;12.42;100.00;95909.44;5055025;28;20029;-72
2023/05/19 08:22:21;;;;;;;9.88;8.25;;;;;;;12.49;100.00;95920.25;5055352;28;20462;-74
2023/05/19 08:24:48;;;;;;;10.45;8.38;;;;;;;12.63;100.00;95911.00;5054707;28;20021;-73
2023/05/19 08:27:14;;;;;;;9.23;8.25;;;;;;;12.63;100.00;95911.84;5051192;28;20024;-73
2023/05/19 08:29:40;;;;;;;11.75;9.07;;;;;;;12.84;100.00;95908.91;5044401;28;20017;-74
2023/05/19 08:32:05;;;;;;;8.52;7.72;;;;;;;13.04;100.00;95903.47;5055260;28;20029;-74
2023/05/19 08:34:31;;;;;;;9.07;8.25;;;;;;;13.40;100.00;95899.94;5053491;28;20025;-73
2023/05/19 08:36:57;;;;;;;11.55;8.18;;;;;;;14.31;100.00;95896.00;5054925;28;20028;-74
2023/05/19 08:39:25;;;;;;;9.30;8.23;;;;;;;15.47;100.00;95901.44;5054315;28;20123;-73
2023/05/19 08:41:52;;;;;;;12.93;8.20;;;;;;;15.33;100.00;95886.19;5054689;28;20370;-73
2023/05/19 08:44:18;;;;;;;8.05;7.35;;;;;;;14.83;100.00;95885.38;5054255;28;20434;-73
2023/05/19 08:46:46;;;;;;;9.57;8.27;;;;;;;14.70;100.00;95881.34;5045252;28;20056;-73
2023/05/19 08:49:13;;;;;;;8.48;7.68;;;;;;;14.57;100.00;95887.13;5054116;28;20104;-73
2023/05/19 08:51:41;;;;;;;9.73;8.13;;;;;;;14.26;100.00;95878.91;5053219;28;20358;-74
2023/05/19 08:54:15;;;;;;;10.05;7.93;;;;;;;14.24;100.00;95887.00;5055147;28;20401;-73
2023/05/19 08:56:43;;;;;;;8.82;7.90;;;;;;;14.22;100.00;95890.81;5057287;28;20389;-73
2023/05/19 08:59:09;;;;;;;10.93;9.50;;;;;;;14.06;100.00;95884.47;5058426;28;20393;-73
2023/05/19 09:01:35;;;;;;;8.77;7.97;;;;;;;13.94;100.00;95881.28;5058570;28;20036;-73
2023/05/19 09:04:02;;;;;;;10.32;8.02;;;;;;;13.76;100.00;95878.72;5057567;28;20078;-73
2023/05/19 09:06:31;;;;;;;8.82;8.02;;;;;;;13.79;100.00;95877.53;5040386;28;20024;-73
2023/05/19 09:08:56;;;;;;;10.77;7.88;;;;;;;13.64;100.00;95875.50;5059130;28;20163;-73
2023/05/19 09:11:22;;;;;;;14.95;10.52;;;;;;;13.51;100.00;95885.66;5058346;28;20045;-74
2023/05/19 09:13:48;;;;;;;10.20;9.00;;;;;;;13.24;100.00;95882.16;5055801;28;20024;-73
2023/05/19 09:16:14;;;;;;;9.05;8.15;;;;;;;13.37;100.00;95879.09;5057180;28;20031;-73
2023/05/19 09:18:52;;;;;;;8.95;8.13;;;;;;;13.37;100.00;95879.09;5058336;28;20504;-73
2023/05/19 09:21:17;;;;;;;7.97;7.18;;;;;;;13.29;100.00;95877.22;5055241;28;20406;-73
2023/05/19 09:23:45;;;;;;;8.65;7.60;;;;;;;13.26;100.00;95878.38;5052900;28;20102;-73
2023/05/19 09:26:11;;;;;;;7.55;6.85;;;;;;;13.02;100.00;95884.28;5057382;28;20029;-73
2023/05/19 09:28:37;;;;;;;16.27;8.65;;;;;;;13.10;100.00;95883.53;5040342;28;20028;-73
2023/05/19 09:31:03;;;;;;;8.50;7.57;;;;;;;12.99;100.00;95882.75;5057672;28;20164;-73
2023/05/19 09:33:31;;;;;;;7.78;7.18;;;;;;;13.00;100.00;95894.19;5058220;28;20021;-73
2023/05/19 09:35:56;;;;;;;9.63;7.13;;;;;;;13.07;100.00;95889.13;5057177;28;20028;-72
2023/05/19 09:38:26;;;;;;;9.18;7.00;;;;;;;12.95;100.00;95891.97;5056579;28;20029;-72
2023/05/19 09:40:55;;;;;;;10.20;7.32;;;;;;;13.03;100.00;95896.50;5057410;28;20049;-73
2023/05/19 09:43:20;;;;;;;9.82;7.68;;;;;;;13.18;100.00;95897.63;5057758;28;20489;-72
2023/05/19 09:45:46;;;;;;;8.90;8.02;;;;;;;13.08;100.00;95894.25;5057276;28;20031;-72
2023/05/19 09:48:14;;;;;;;10.82;7.43;;;;;;;13.17;100.00;95895.97;5057771;28;20081;-73
2023/05/19 09:50:41;;;;;;;8.65;7.40;;;;;;;13.40;100.00;95889.34;5057459;28;20056;-72
2023/05/19 09:53:07;;;;;;;8.57;7.40;;;;;;;13.40;100.00;95894.66;5057593;28;20033;-72
2023/05/19 09:55:33;;;;;;;8.50;7.43;;;;;;;13.39;100.00;95888.53;5057663;28;20028;-72
2023/05/19 09:58:00;;;;;;;8.02;7.32;;;;;;;13.40;100.00;95884.91;5056539;28;20016;-72
2023/05/19 10:00:26;;;;;;;8.05;7.18;;;;;;;13.36;100.00;95882.72;5057832;28;20040;-72
2023/05/19 10:02:56;;;;;;;8.68;7.78;;;;;;;13.34;100.00;95885.50;5057729;28;20047;-72
2023/05/19 10:05:22;;;;;;;8.48;7.60;;;;;;;13.50;100.00;95887.50;5055764;28;20200;-73
2023/05/19 10:07:51;;;;;;;7.75;6.53;;;;;;;13.74;100.00;95880.69;5056870;28;20022;-73
2023/05/19 10:10:20;;;;;;;10.43;6.93;;;;;;;13.83;100.00;95878.91;5056108;28;20469;-73
2023/05/19 10:12:47;;;;;;;7.63;6.78;;;;;;;13.87;100.00;95882.91;5057242;28;20378;-73
2023/05/19 10:15:14;;;;;;;7.20;6.57;;;;;;;13.87;100.00;95881.06;5057033;28;20025;-73
2023/05/19 10:17:44;;;;;;;8.35;6.60;;;;;;;13.74;100.00;95885.97;5054540;28;20031;-73
2023/05/19 10:20:14;;;;;;;8.27;7.45;;;;;;;13.79;100.00;95882.84;5056897;28;20047;-73
2023/05/19 10:22:41;;;;;;;11.30;7.63;;;;;;;13.71;100.00;95878.34;5057085;28;20070;-73
2023/05/19 10:25:09;;;;;;;7.93;7.20;;;;;;;13.68;100.00;95878.63;5056668;28;20082;-73
2023/05/19 10:27:39;;;;;;;7.63;6.65;;;;;;;13.60;100.00;95876.81;5057458;28;20029;-73
2023/05/19 10:30:13;;;;;;;7.75;6.95;;;;;;;13.70;100.00;95874.88;5055779;28;20046;-73
2023/05/19 10:32:41;;;;;;;8.02;7.10;;;;;;;13.61;100.00;95865.25;5055836;28;20025;-73
2023/05/19 10:35:27;;;;;;;8.32;6.35;;;;;;;13.62;100.00;95872.19;5057209;28;20033;-74
2023/05/19 10:37:52;;;;;;;7.40;6.60;;;;;;;13.73;100.00;95873.72;5055101;28;20028;-73
2023/05/19 10:40:26;;;;;;;10.57;6.97;;;;;;;13.74;100.00;95876.22;5056596;28;20059;-73
2023/05/19 10:43:16;;;;;;;9.63;7.97;;;;;;;13.85;100.00;95874.28;5045401;28;20016;-73
2023/05/19 10:45:51;;;;;;;9.15;8.35;;;;;;;13.89;100.00;95872.97;5056361;28;20505;-73
2023/05/19 10:48:19;;;;;;;9.90;7.72;;;;;;;13.97;100.00;95870.34;5056548;28;20166;-73
2023/05/19 10:50:45;;;;;;;7.15;6.43;;;;;;;14.03;100.00;95869.72;5043379;28;20027;-73
2023/05/19 10:53:19;;;;;;;9.85;6.78;;;;;;;14.16;100.00;95868.44;5056592;28;20077;-73
2023/05/19 10:55:57;;;;;;;12.82;6.78;;;;;;;14.22;100.00;95869.63;5054820;28;20043;-73
2023/05/19 10:58:39;;;;;;;8.38;6.30;;;;;;;14.12;100.00;95864.47;5056954;28;20024;-73
2023/05/19 11:01:12;;;;;;;8.00;7.20;;;;;;;14.22;100.00;95857.22;5048772;28;20035;-73
2023/05/19 11:03:48;;;;;;;6.90;6.30;;;;;;;14.25;100.00;95853.44;5055927;28;20042;-73
2023/05/19 11:06:27;;;;;;;8.30;7.50;;;;;;;14.32;100.00;95851.78;5056100;28;20029;-73
2023/05/19 11:09:14;;;;;;;11.90;7.20;;;;;;;14.57;100.00;95855.31;5056578;28;20481;-73
2023/05/19 11:11:45;;;;;;;7.20;6.50;;;;;;;14.70;100.00;95848.69;5056194;28;20033;-73
2023/05/19 11:14:14;;;;;;;7.05;6.35;;;;;;;14.73;100.00;95843.13;5061246;28;20040;-73
2023/05/19 11:16:44;;;;;;;9.32;8.43;;;;;;;14.86;100.00;95840.81;5055674;28;20021;-73
2023/05/19 11:19:25;;;;;;;8.23;6.53;;;;;;;14.94;100.00;95836.53;5055138;28;20104;-74
2023/05/19 11:21:53;;;;;;;9.00;7.43;;;;;;;15.02;100.00;95837.31;5049542;28;20052;-74
2023/05/19 11:26:45;;;;;;;6.72;6.07;;;;;;;15.14;100.00;95829.88;5053988;28;20017;-73
2023/05/19 11:29:10;;;;;;;7.15;5.80;;;;;;;15.29;100.00;95821.22;5055709;28;20079;-73